Archival Weather

Snohomish County (Paine Fld)

Everett, Washington (KPAE)

Report from: Monday, November 20, 2023 12:53 AM PST
Current time: Sunday, February 25, 2024 12:41 PM PST

Current weather – Weather history – Daily summaries
Weather forecast

Temperature5.0°C (41.0°F)
Wind chill3.9°C (39.0°F)
Dew point3.3°C (37.9°F)
Winds 3 kts (1.5 m/s, 3.5 mph) Vrb
Winds variableWinds variable
Visibility10 mi. (16.1 km)
Clouds Ceiling: Overcast 3,400 ft. (1,036 m)
Altimeter30.53 in.Hg (1034 mB)
Relative humidity89 %
Density altitude-1,806 ft. (-551 m)
Sea-level pressure103.4 kPa (1034 mB, 30.54 in.Hg)
Remarks Fully automated report
Automated weather observing station with precipitation discriminator
Pressure rising, then falling
Flight conditions Visual Meteorological Conditions
Raw dataKPAE 200853Z AUTO VRB03KT 10SM OVC034 05/03 A3053 RMK AO2 SLP343 T00500033 50005
An error has occurred. This application may no longer respond until reloaded. Reload 🗙